Allegany, New York
Current Conditions -  °F | °C
As of 1:55 PM on Friday 31 Oct 2014 (Local Time) from KOLE Reporting Station
Overcast Overcast  
Wind Chill: 36°   Ceiling: 1300
Heat Index: 39°   Visibility: 10mi
Dew Point: 39°   Wind: 5mph
Humidity: 100%   Direction: 160°SSE
Pressure: 29.88"   Gusts: NA
Location:  42.09°N, 78.49°W
Report Text: KOLE 311755Z AUTO 16004KT 10SM BKN013 BKN024 OVC055 04/04 A2988 RMK AO2
Loading
Personal Weather Stations






























Interactive Weather Map
Tropical Storm Tracking
New forecast layout! Learn more

10-Day Weather Forecast

Advertisements
Track Severe Weather on mobile